Waf_motion — 4RBK — position and weather

sailwx.info

Track history (hours):
 
Tides and Currents Weather Stations Pressure Air Temp Water Temp Dewpoint Dewpoint Depression Visibility Wind Speed Wind Dir Waves Ship Positions

Waf_motion

Last reported at 2017-Oct-07 00:39 UTC. Time now 2017-Oct-17 22:43 UTC.
Position S 33°12' E 152°18'.
Warning: this ship's position is 10 days out of date.

Length 140 m; draft 5.8 m.

Type: Cargo ship. MMSI: 417222324.

Date/timePositionNaut miles runAvg speedWind from/ knotsBaromVisibWave heightAir tempDewpointWater temp
2017-Oct-07 00:39S 33°12' E 152°18'310.9
2017-Oct-07 00:24S 33°10' E 152°20'511.2
2017-Oct-07 00:00S 33°07' E 152°23'711.6
2017-Oct-06 23:22S 33°01' E 152°29'411.4
2017-Oct-06 22:59S 32°57' E 152°31'511.2
2017-Oct-06 22:31S 32°53' E 152°34'510.3
2017-Oct-06 22:00S 32°48' E 152°38'5 9.2
2017-Oct-06 21:30S 32°44' E 152°40'4 8.8
2017-Oct-06 21:01S 32°40' E 152°43'5 9.1
2017-Oct-06 20:28S 32°36' E 152°46'19413.1
2017-Oct-06 05:39S 29°39' E 154°19'317.0
2017-Oct-06 05:29S 29°37' E 154°20'816.7
2017-Oct-06 05:00S 29°29' E 154°23'816.2
2017-Oct-06 04:30S 29°21' E 154°25'815.8
2017-Oct-06 04:00S 29°14' E 154°28'816.9
2017-Oct-06 03:30S 29°06' E 154°31'816.6
2017-Oct-06 03:00S 28°57' E 154°34'816.2
2017-Oct-06 02:30S 28°50' E 154°36'815.9
2017-Oct-06 02:00S 28°42' E 154°39'816.0
2017-Oct-06 01:29S 28°34' E 154°41'916.2
2017-Oct-06 00:54S 28°25' E 154°44'615.9
2017-Oct-06 00:30S 28°19' E 154°47'815.7
2017-Oct-06 00:00S 28°12' E 154°50'4416.1
2017-Oct-05 21:17S 27°30' E 155°04'  
Track history (hours):
 
Tides and Currents Weather Stations Pressure Air Temp Water Temp Dewpoint Dewpoint Depression Visibility Wind Speed Wind Dir Waves Ship Positions

Waf_motion

Last reported at 2017-Oct-07 00:39 UTC. Time now 2017-Oct-17 22:43 UTC.
Position S 33°12' E 152°18'.
Warning: this ship's position is 10 days out of date.

Length 140 m; draft 5.8 m.

Type: Cargo ship. MMSI: 417222324.

Date/timePositionNaut miles runAvg speedWind from/ knotsBaromVisibWave heightAir tempDewpointWater temp
2017-Oct-07 00:39S 33°12' E 152°18'310.9
2017-Oct-07 00:24S 33°10' E 152°20'511.2
2017-Oct-07 00:00S 33°07' E 152°23'711.6
2017-Oct-06 23:22S 33°01' E 152°29'411.4
2017-Oct-06 22:59S 32°57' E 152°31'511.2
2017-Oct-06 22:31S 32°53' E 152°34'510.3
2017-Oct-06 22:00S 32°48' E 152°38'5 9.2
2017-Oct-06 21:30S 32°44' E 152°40'4 8.8
2017-Oct-06 21:01S 32°40' E 152°43'5 9.1
2017-Oct-06 20:28S 32°36' E 152°46'19413.1
2017-Oct-06 05:39S 29°39' E 154°19'317.0
2017-Oct-06 05:29S 29°37' E 154°20'816.7
2017-Oct-06 05:00S 29°29' E 154°23'816.2
2017-Oct-06 04:30S 29°21' E 154°25'815.8
2017-Oct-06 04:00S 29°14' E 154°28'816.9
2017-Oct-06 03:30S 29°06' E 154°31'816.6
2017-Oct-06 03:00S 28°57' E 154°34'816.2
2017-Oct-06 02:30S 28°50' E 154°36'815.9
2017-Oct-06 02:00S 28°42' E 154°39'816.0
2017-Oct-06 01:29S 28°34' E 154°41'916.2
2017-Oct-06 00:54S 28°25' E 154°44'615.9
2017-Oct-06 00:30S 28°19' E 154°47'815.7
2017-Oct-06 00:00S 28°12' E 154°50'4416.1
2017-Oct-05 21:17S 27°30' E 155°04'  

Dump ship's entire track history